sensor_id;sensor_type;location;lat;lon;timestamp;temperature;humidity
12849;DHT22;6493;50.928;7.172;2023-04-01T00:00:09;7.20;59.40
12849;DHT22;6493;50.928;7.172;2023-04-01T00:05:17;7.10;59.10
12849;DHT22;6493;50.928;7.172;2023-04-01T00:10:21;7.10;59.00
12849;DHT22;6493;50.928;7.172;2023-04-01T00:15:24;7.10;59.00
12849;DHT22;6493;50.928;7.172;2023-04-01T00:20:29;7.10;59.20
12849;DHT22;6493;50.928;7.172;2023-04-01T00:25:33;7.10;59.10
12849;DHT22;6493;50.928;7.172;2023-04-01T00:30:37;7.20;59.40
12849;DHT22;6493;50.928;7.172;2023-04-01T00:35:42;7.20;59.00
12849;DHT22;6493;50.928;7.172;2023-04-01T00:40:46;7.10;59.20
12849;DHT22;6493;50.928;7.172;2023-04-01T00:45:51;7.10;59.10
12849;DHT22;6493;50.928;7.172;2023-04-01T00:50:59;7.20;59.30
12849;DHT22;6493;50.928;7.172;2023-04-01T00:56:07;7.20;60.00
12849;DHT22;6493;50.928;7.172;2023-04-01T01:01:13;7.10;59.30
12849;DHT22;6493;50.928;7.172;2023-04-01T01:06:26;7.20;59.10
12849;DHT22;6493;50.928;7.172;2023-04-01T01:11:36;7.20;59.50
12849;DHT22;6493;50.928;7.172;2023-04-01T01:16:47;7.20;59.30
12849;DHT22;6493;50.928;7.172;2023-04-01T01:22:17;7.20;59.10
12849;DHT22;6493;50.928;7.172;2023-04-01T01:27:24;7.10;59.80
12849;DHT22;6493;50.928;7.172;2023-04-01T01:32:58;7.20;59.30
12849;DHT22;6493;50.928;7.172;2023-04-01T01:38:08;7.20;59.50
12849;DHT22;6493;50.928;7.172;2023-04-01T01:43:18;7.20;59.50
12849;DHT22;6493;50.928;7.172;2023-04-01T01:48:24;7.10;59.30
12849;DHT22;6493;50.928;7.172;2023-04-01T01:53:30;7.20;59.60
12849;DHT22;6493;50.928;7.172;2023-04-01T01:58:36;7.10;59.30
12849;DHT22;6493;50.928;7.172;2023-04-01T02:03:45;7.10;59.40
12849;DHT22;6493;50.928;7.172;2023-04-01T02:08:53;7.10;59.30
12849;DHT22;6493;50.928;7.172;2023-04-01T02:14:02;7.10;59.50
12849;DHT22;6493;50.928;7.172;2023-04-01T02:19:07;7.10;59.40
12849;DHT22;6493;50.928;7.172;2023-04-01T02:24:14;7.00;59.50
12849;DHT22;6493;50.928;7.172;2023-04-01T02:29:20;7.00;59.70
12849;DHT22;6493;50.928;7.172;2023-04-01T02:34:25;6.90;59.80
12849;DHT22;6493;50.928;7.172;2023-04-01T02:39:31;6.90;60.00
12849;DHT22;6493;50.928;7.172;2023-04-01T02:44:35;6.80;59.80
12849;DHT22;6493;50.928;7.172;2023-04-01T02:49:38;6.70;60.20
12849;DHT22;6493;50.928;7.172;2023-04-01T02:54:43;6.60;60.00
12849;DHT22;6493;50.928;7.172;2023-04-01T02:59:47;6.60;60.00
12849;DHT22;6493;50.928;7.172;2023-04-01T03:04:51;6.60;60.00
12849;DHT22;6493;50.928;7.172;2023-04-01T03:09:55;6.50;61.30
12849;DHT22;6493;50.928;7.172;2023-04-01T03:14:59;6.50;62.10
12849;DHT22;6493;50.928;7.172;2023-04-01T03:20:14;6.40;61.10
12849;DHT22;6493;50.928;7.172;2023-04-01T03:25:19;6.40;61.30
12849;DHT22;6493;50.928;7.172;2023-04-01T03:30:22;6.40;61.70
12849;DHT22;6493;50.928;7.172;2023-04-01T03:35:26;6.30;61.40
12849;DHT22;6493;50.928;7.172;2023-04-01T03:40:31;6.30;61.30
12849;DHT22;6493;50.928;7.172;2023-04-01T03:45:35;6.30;61.90
12849;DHT22;6493;50.928;7.172;2023-04-01T03:50:38;6.30;61.50
12849;DHT22;6493;50.928;7.172;2023-04-01T03:55:43;6.30;62.60
12849;DHT22;6493;50.928;7.172;2023-04-01T04:00:46;6.20;61.30
12849;DHT22;6493;50.928;7.172;2023-04-01T04:05:50;6.20;61.40
12849;DHT22;6493;50.928;7.172;2023-04-01T04:10:57;6.20;61.80
12849;DHT22;6493;50.928;7.172;2023-04-01T04:16:01;6.20;62.10
12849;DHT22;6493;50.928;7.172;2023-04-01T04:21:06;6.20;61.40
12849;DHT22;6493;50.928;7.172;2023-04-01T04:26:13;6.20;62.10
12849;DHT22;6493;50.928;7.172;2023-04-01T04:31:19;6.20;61.80
12849;DHT22;6493;50.928;7.172;2023-04-01T04:36:24;6.20;62.00
12849;DHT22;6493;50.928;7.172;2023-04-01T04:41:29;6.20;61.90
12849;DHT22;6493;50.928;7.172;2023-04-01T04:46:33;6.20;61.90
12849;DHT22;6493;50.928;7.172;2023-04-01T04:51:45;6.20;62.20
12849;DHT22;6493;50.928;7.172;2023-04-01T04:56:53;6.20;61.60
12849;DHT22;6493;50.928;7.172;2023-04-01T05:01:58;6.20;61.50
12849;DHT22;6493;50.928;7.172;2023-04-01T05:07:02;6.20;61.70
12849;DHT22;6493;50.928;7.172;2023-04-01T05:12:09;6.20;61.80
12849;DHT22;6493;50.928;7.172;2023-04-01T05:17:35;6.20;62.00
12849;DHT22;6493;50.928;7.172;2023-04-01T05:22:39;6.20;62.10
12849;DHT22;6493;50.928;7.172;2023-04-01T05:27:44;6.20;61.90
12849;DHT22;6493;50.928;7.172;2023-04-01T05:32:47;6.20;61.70
12849;DHT22;6493;50.928;7.172;2023-04-01T05:37:51;6.10;61.70
12849;DHT22;6493;50.928;7.172;2023-04-01T05:42:57;6.10;62.20
12849;DHT22;6493;50.928;7.172;2023-04-01T05:48:01;6.20;61.80
12849;DHT22;6493;50.928;7.172;2023-04-01T05:53:10;6.10;61.80
12849;DHT22;6493;50.928;7.172;2023-04-01T05:58:17;6.20;62.00
12849;DHT22;6493;50.928;7.172;2023-04-01T06:03:22;6.20;62.10
12849;DHT22;6493;50.928;7.172;2023-04-01T06:08:25;6.20;62.10
12849;DHT22;6493;50.928;7.172;2023-04-01T06:13:46;6.20;62.20
12849;DHT22;6493;50.928;7.172;2023-04-01T06:19:09;6.20;62.60
12849;DHT22;6493;50.928;7.172;2023-04-01T06:24:35;6.20;62.40
12849;DHT22;6493;50.928;7.172;2023-04-01T06:29:54;6.20;62.50
12849;DHT22;6493;50.928;7.172;2023-04-01T06:35:17;6.20;62.30
12849;DHT22;6493;50.928;7.172;2023-04-01T06:45:52;6.30;62.80
12849;DHT22;6493;50.928;7.172;2023-04-01T06:51:23;6.30;63.50
12849;DHT22;6493;50.928;7.172;2023-04-01T06:56:49;6.30;63.10
12849;DHT22;6493;50.928;7.172;2023-04-01T07:02:02;6.30;63.30
12849;DHT22;6493;50.928;7.172;2023-04-01T07:07:14;6.30;63.90
12849;DHT22;6493;50.928;7.172;2023-04-01T07:12:36;6.40;63.50
12849;DHT22;6493;50.928;7.172;2023-04-01T07:17:53;6.40;63.40
12849;DHT22;6493;50.928;7.172;2023-04-01T07:22:59;6.40;64.30
12849;DHT22;6493;50.928;7.172;2023-04-01T07:28:13;6.40;63.30
12849;DHT22;6493;50.928;7.172;2023-04-01T07:33:25;6.50;63.40
12849;DHT22;6493;50.928;7.172;2023-04-01T07:38:38;6.50;63.50
12849;DHT22;6493;50.928;7.172;2023-04-01T07:43:57;6.50;63.40
12849;DHT22;6493;50.928;7.172;2023-04-01T07:49:09;6.50;63.50
12849;DHT22;6493;50.928;7.172;2023-04-01T07:54:21;6.50;64.40
12849;DHT22;6493;50.928;7.172;2023-04-01T07:59:30;6.50;63.60
12849;DHT22;6493;50.928;7.172;2023-04-01T08:04:55;6.50;64.00
12849;DHT22;6493;50.928;7.172;2023-04-01T08:10:10;6.50;63.60
12849;DHT22;6493;50.928;7.172;2023-04-01T08:15:38;6.50;63.70
12849;DHT22;6493;50.928;7.172;2023-04-01T08:20:53;6.50;63.50
12849;DHT22;6493;50.928;7.172;2023-04-01T08:26:04;6.60;63.80
12849;DHT22;6493;50.928;7.172;2023-04-01T08:31:16;6.60;63.60
12849;DHT22;6493;50.928;7.172;2023-04-01T08:36:26;6.60;64.00
12849;DHT22;6493;50.928;7.172;2023-04-01T08:42:09;6.60;63.90
12849;DHT22;6493;50.928;7.172;2023-04-01T08:53:05;6.50;64.00
12849;DHT22;6493;50.928;7.172;2023-04-01T08:58:42;6.60;64.50
12849;DHT22;6493;50.928;7.172;2023-04-01T09:04:13;6.60;64.50
12849;DHT22;6493;50.928;7.172;2023-04-01T09:09:44;6.60;64.40
12849;DHT22;6493;50.928;7.172;2023-04-01T09:20:55;6.70;65.20
12849;DHT22;6493;50.928;7.172;2023-04-01T09:26:24;6.70;65.50
12849;DHT22;6493;50.928;7.172;2023-04-01T09:31:46;6.70;65.50
12849;DHT22;6493;50.928;7.172;2023-04-01T09:37:20;6.80;65.40
12849;DHT22;6493;50.928;7.172;2023-04-01T09:42:42;6.80;65.00
12849;DHT22;6493;50.928;7.172;2023-04-01T09:48:06;6.80;65.00
12849;DHT22;6493;50.928;7.172;2023-04-01T09:53:28;6.90;66.10
12849;DHT22;6493;50.928;7.172;2023-04-01T10:10:43;6.90;65.90
12849;DHT22;6493;50.928;7.172;2023-04-01T10:16:14;6.90;65.60
12849;DHT22;6493;50.928;7.172;2023-04-01T10:27:28;6.80;65.40
12849;DHT22;6493;50.928;7.172;2023-04-01T10:39:03;6.80;65.60
12849;DHT22;6493;50.928;7.172;2023-04-01T10:50:27;7.00;66.30
12849;DHT22;6493;50.928;7.172;2023-04-01T11:14:00;7.20;65.80
12849;DHT22;6493;50.928;7.172;2023-04-01T11:19:38;7.30;65.90
12849;DHT22;6493;50.928;7.172;2023-04-01T11:30:49;7.30;66.20
12849;DHT22;6493;50.928;7.172;2023-04-01T11:36:09;7.30;65.90
12849;DHT22;6493;50.928;7.172;2023-04-01T11:41:25;7.30;65.70
12849;DHT22;6493;50.928;7.172;2023-04-01T11:46:43;7.40;66.70
12849;DHT22;6493;50.928;7.172;2023-04-01T11:52:07;7.40;65.80
12849;DHT22;6493;50.928;7.172;2023-04-01T12:02:58;7.50;65.90
12849;DHT22;6493;50.928;7.172;2023-04-01T12:08:18;7.60;66.10
12849;DHT22;6493;50.928;7.172;2023-04-01T12:13:33;7.60;66.20
12849;DHT22;6493;50.928;7.172;2023-04-01T12:18:40;7.60;65.90
12849;DHT22;6493;50.928;7.172;2023-04-01T12:29:44;7.70;66.20
12849;DHT22;6493;50.928;7.172;2023-04-01T12:35:03;7.70;65.90
12849;DHT22;6493;50.928;7.172;2023-04-01T12:40:36;7.70;65.80
12849;DHT22;6493;50.928;7.172;2023-04-01T12:45:46;7.80;66.20
12849;DHT22;6493;50.928;7.172;2023-04-01T12:56:39;7.90;66.20
12849;DHT22;6493;50.928;7.172;2023-04-01T13:02:00;7.90;66.50
12849;DHT22;6493;50.928;7.172;2023-04-01T13:07:26;7.90;65.80
12849;DHT22;6493;50.928;7.172;2023-04-01T13:12:52;7.90;65.70
12849;DHT22;6493;50.928;7.172;2023-04-01T13:18:03;7.90;65.60
12849;DHT22;6493;50.928;7.172;2023-04-01T13:23:18;7.90;65.60
12849;DHT22;6493;50.928;7.172;2023-04-01T13:28:26;7.90;65.50
12849;DHT22;6493;50.928;7.172;2023-04-01T13:33:37;8.00;65.60
12849;DHT22;6493;50.928;7.172;2023-04-01T13:39:10;8.00;65.70
12849;DHT22;6493;50.928;7.172;2023-04-01T13:44:21;8.00;66.40
12849;DHT22;6493;50.928;7.172;2023-04-01T13:55:29;8.00;66.10
12849;DHT22;6493;50.928;7.172;2023-04-01T14:00:55;8.00;65.60
12849;DHT22;6493;50.928;7.172;2023-04-01T14:06:11;8.00;65.50
12849;DHT22;6493;50.928;7.172;2023-04-01T14:11:21;8.00;65.80
12849;DHT22;6493;50.928;7.172;2023-04-01T14:16:54;8.00;65.50
12849;DHT22;6493;50.928;7.172;2023-04-01T14:22:05;8.00;65.80
12849;DHT22;6493;50.928;7.172;2023-04-01T14:27:30;8.00;65.60
12849;DHT22;6493;50.928;7.172;2023-04-01T14:32:47;8.00;65.90
12849;DHT22;6493;50.928;7.172;2023-04-01T14:38:06;8.00;66.10
12849;DHT22;6493;50.928;7.172;2023-04-01T14:43:46;8.00;66.40
12849;DHT22;6493;50.928;7.172;2023-04-01T14:48:53;7.90;66.40
12849;DHT22;6493;50.928;7.172;2023-04-01T14:54:13;7.90;65.80
12849;DHT22;6493;50.928;7.172;2023-04-01T14:59:28;7.90;66.30
12849;DHT22;6493;50.928;7.172;2023-04-01T15:04:53;7.90;66.00
12849;DHT22;6493;50.928;7.172;2023-04-01T15:10:05;7.80;66.00
12849;DHT22;6493;50.928;7.172;2023-04-01T15:15:28;7.70;66.00
12849;DHT22;6493;50.928;7.172;2023-04-01T15:20:53;7.70;65.90
12849;DHT22;6493;50.928;7.172;2023-04-01T15:31:40;7.70;66.60
12849;DHT22;6493;50.928;7.172;2023-04-01T15:36:53;7.70;66.20
12849;DHT22;6493;50.928;7.172;2023-04-01T15:42:15;7.70;66.30
12849;DHT22;6493;50.928;7.172;2023-04-01T15:47:42;7.80;66.50
12849;DHT22;6493;50.928;7.172;2023-04-01T15:52:58;7.80;66.40
12849;DHT22;6493;50.928;7.172;2023-04-01T15:58:22;7.80;66.20
12849;DHT22;6493;50.928;7.172;2023-04-01T16:03:37;7.80;66.40
12849;DHT22;6493;50.928;7.172;2023-04-01T16:08:58;7.80;66.20
12849;DHT22;6493;50.928;7.172;2023-04-01T16:14:13;7.80;66.30
12849;DHT22;6493;50.928;7.172;2023-04-01T16:19:39;7.80;66.20
12849;DHT22;6493;50.928;7.172;2023-04-01T16:24:50;7.80;66.00
12849;DHT22;6493;50.928;7.172;2023-04-01T16:30:00;7.80;65.80
12849;DHT22;6493;50.928;7.172;2023-04-01T16:35:23;7.80;65.80
12849;DHT22;6493;50.928;7.172;2023-04-01T16:40:40;7.70;65.90
12849;DHT22;6493;50.928;7.172;2023-04-01T16:45:53;7.70;66.10
12849;DHT22;6493;50.928;7.172;2023-04-01T16:51:02;7.70;65.90
12849;DHT22;6493;50.928;7.172;2023-04-01T16:56:13;7.70;65.90
12849;DHT22;6493;50.928;7.172;2023-04-01T17:01:23;7.60;65.80
12849;DHT22;6493;50.928;7.172;2023-04-01T17:06:33;7.60;65.60
12849;DHT22;6493;50.928;7.172;2023-04-01T17:11:44;7.60;66.50
12849;DHT22;6493;50.928;7.172;2023-04-01T17:22:31;7.50;66.10
12849;DHT22;6493;50.928;7.172;2023-04-01T17:27:44;7.40;66.50
12849;DHT22;6493;50.928;7.172;2023-04-01T17:44:34;7.30;66.10
12849;DHT22;6493;50.928;7.172;2023-04-01T17:49:47;7.30;65.90
12849;DHT22;6493;50.928;7.172;2023-04-01T17:54:57;7.30;66.00
12849;DHT22;6493;50.928;7.172;2023-04-01T18:00:17;7.20;65.90
12849;DHT22;6493;50.928;7.172;2023-04-01T18:05:30;7.20;66.00
12849;DHT22;6493;50.928;7.172;2023-04-01T18:10:43;7.20;66.00
12849;DHT22;6493;50.928;7.172;2023-04-01T18:15:55;7.10;65.90
12849;DHT22;6493;50.928;7.172;2023-04-01T18:21:08;7.20;66.00
12849;DHT22;6493;50.928;7.172;2023-04-01T18:26:20;7.10;65.90
12849;DHT22;6493;50.928;7.172;2023-04-01T18:31:26;7.10;65.90
12849;DHT22;6493;50.928;7.172;2023-04-01T18:36:43;7.10;65.90
12849;DHT22;6493;50.928;7.172;2023-04-01T18:42:01;7.10;66.30
12849;DHT22;6493;50.928;7.172;2023-04-01T18:47:19;7.10;66.20
12849;DHT22;6493;50.928;7.172;2023-04-01T18:52:28;7.00;66.00
12849;DHT22;6493;50.928;7.172;2023-04-01T18:57:40;7.00;65.90
12849;DHT22;6493;50.928;7.172;2023-04-01T19:02:55;6.90;66.00
12849;DHT22;6493;50.928;7.172;2023-04-01T19:08:17;6.90;66.10
12849;DHT22;6493;50.928;7.172;2023-04-01T19:13:26;6.90;66.40
12849;DHT22;6493;50.928;7.172;2023-04-01T19:24:32;6.90;66.50
12849;DHT22;6493;50.928;7.172;2023-04-01T19:29:53;6.80;66.40
12849;DHT22;6493;50.928;7.172;2023-04-01T19:35:09;6.80;66.30
12849;DHT22;6493;50.928;7.172;2023-04-01T19:40:25;6.80;66.30
12849;DHT22;6493;50.928;7.172;2023-04-01T19:45:38;6.80;66.30
12849;DHT22;6493;50.928;7.172;2023-04-01T19:50:47;6.70;66.10
12849;DHT22;6493;50.928;7.172;2023-04-01T19:55:58;6.70;66.10
12849;DHT22;6493;50.928;7.172;2023-04-01T20:01:04;6.70;66.30
12849;DHT22;6493;50.928;7.172;2023-04-01T20:06:24;6.70;66.30
12849;DHT22;6493;50.928;7.172;2023-04-01T20:11:43;6.60;66.40
12849;DHT22;6493;50.928;7.172;2023-04-01T20:16:54;6.70;66.50
12849;DHT22;6493;50.928;7.172;2023-04-01T20:22:00;6.70;66.40
12849;DHT22;6493;50.928;7.172;2023-04-01T20:27:10;6.60;66.30
12849;DHT22;6493;50.928;7.172;2023-04-01T20:32:30;6.70;66.60
12849;DHT22;6493;50.928;7.172;2023-04-01T20:37:44;6.70;66.50
12849;DHT22;6493;50.928;7.172;2023-04-01T20:48:51;6.60;66.50
12849;DHT22;6493;50.928;7.172;2023-04-01T20:54:11;6.60;66.50
12849;DHT22;6493;50.928;7.172;2023-04-01T21:05:02;6.60;66.40
12849;DHT22;6493;50.928;7.172;2023-04-01T21:10:20;6.60;66.70
12849;DHT22;6493;50.928;7.172;2023-04-01T21:15:38;6.50;66.40
12849;DHT22;6493;50.928;7.172;2023-04-01T21:20:57;6.50;66.30
12849;DHT22;6493;50.928;7.172;2023-04-01T21:26:19;6.50;67.10
12849;DHT22;6493;50.928;7.172;2023-04-01T21:31:37;6.60;66.50
12849;DHT22;6493;50.928;7.172;2023-04-01T21:36:58;6.50;66.60
12849;DHT22;6493;50.928;7.172;2023-04-01T21:42:16;6.50;66.70
12849;DHT22;6493;50.928;7.172;2023-04-01T21:53:56;6.50;66.80
12849;DHT22;6493;50.928;7.172;2023-04-01T22:04:47;6.50;66.70
12849;DHT22;6493;50.928;7.172;2023-04-01T22:10:03;6.50;66.80
12849;DHT22;6493;50.928;7.172;2023-04-01T22:15:16;6.50;66.70
12849;DHT22;6493;50.928;7.172;2023-04-01T22:20:28;6.50;66.70
12849;DHT22;6493;50.928;7.172;2023-04-01T22:25:40;6.50;66.80
12849;DHT22;6493;50.928;7.172;2023-04-01T22:30:50;6.50;66.80
12849;DHT22;6493;50.928;7.172;2023-04-01T22:36:01;6.50;66.80
12849;DHT22;6493;50.928;7.172;2023-04-01T22:41:14;6.50;66.80
12849;DHT22;6493;50.928;7.172;2023-04-01T22:46:30;6.50;66.90
12849;DHT22;6493;50.928;7.172;2023-04-01T22:51:42;6.60;67.00
12849;DHT22;6493;50.928;7.172;2023-04-01T22:56:49;6.60;66.90
12849;DHT22;6493;50.928;7.172;2023-04-01T23:01:57;6.60;67.00
12849;DHT22;6493;50.928;7.172;2023-04-01T23:07:05;6.60;67.20
12849;DHT22;6493;50.928;7.172;2023-04-01T23:12:19;6.50;67.00
12849;DHT22;6493;50.928;7.172;2023-04-01T23:17:42;6.50;67.10
12849;DHT22;6493;50.928;7.172;2023-04-01T23:22:58;6.40;67.30
12849;DHT22;6493;50.928;7.172;2023-04-01T23:33:28;6.40;67.80
12849;DHT22;6493;50.928;7.172;2023-04-01T23:38:34;6.40;67.40
12849;DHT22;6493;50.928;7.172;2023-04-01T23:43:41;6.30;68.50
12849;DHT22;6493;50.928;7.172;2023-04-01T23:48:46;6.30;67.80
12849;DHT22;6493;50.928;7.172;2023-04-01T23:53:57;6.20;67.80
12849;DHT22;6493;50.928;7.172;2023-04-01T23:59:03;6.20;67.90
